sensor_id;sensor_type;location;lat;lon;timestamp;temperature;humidity
23671;DHT22;12012;51.998;7.614;2023-04-24T00:02:14;11.20;99.90
23671;DHT22;12012;51.998;7.614;2023-04-24T00:04:40;11.20;41.60
23671;DHT22;12012;51.998;7.614;2023-04-24T00:07:06;11.20;9.70
23671;DHT22;12012;51.998;7.614;2023-04-24T00:09:33;11.20;1.00
23671;DHT22;12012;51.998;7.614;2023-04-24T00:11:58;11.30;1.00
23671;DHT22;12012;51.998;7.614;2023-04-24T00:14:25;11.30;99.90
23671;DHT22;12012;51.998;7.614;2023-04-24T00:16:50;11.20;99.90
23671;DHT22;12012;51.998;7.614;2023-04-24T00:19:16;11.30;99.90
23671;DHT22;12012;51.998;7.614;2023-04-24T00:21:41;11.30;99.90
23671;DHT22;12012;51.998;7.614;2023-04-24T00:24:07;11.30;3.60
23671;DHT22;12012;51.998;7.614;2023-04-24T00:26:34;11.30;1.00
23671;DHT22;12012;51.998;7.614;2023-04-24T00:29:00;11.30;1.00
23671;DHT22;12012;51.998;7.614;2023-04-24T00:31:26;11.30;1.00
23671;DHT22;12012;51.998;7.614;2023-04-24T00:33:51;11.30;1.00
23671;DHT22;12012;51.998;7.614;2023-04-24T00:36:17;11.30;1.00
23671;DHT22;12012;51.998;7.614;2023-04-24T00:38:44;11.30;99.90
23671;DHT22;12012;51.998;7.614;2023-04-24T00:41:11;11.30;99.90
23671;DHT22;12012;51.998;7.614;2023-04-24T00:43:36;11.30;99.90
23671;DHT22;12012;51.998;7.614;2023-04-24T00:46:02;11.30;99.90
23671;DHT22;12012;51.998;7.614;2023-04-24T00:48:28;11.30;99.90
23671;DHT22;12012;51.998;7.614;2023-04-24T00:50:54;11.30;99.90
23671;DHT22;12012;51.998;7.614;2023-04-24T00:53:20;11.40;30.00
23671;DHT22;12012;51.998;7.614;2023-04-24T00:55:46;11.30;1.00
23671;DHT22;12012;51.998;7.614;2023-04-24T00:58:12;11.40;1.00
23671;DHT22;12012;51.998;7.614;2023-04-24T01:00:38;11.40;1.00
23671;DHT22;12012;51.998;7.614;2023-04-24T01:03:05;11.40;1.00
23671;DHT22;12012;51.998;7.614;2023-04-24T01:05:31;11.40;1.00
23671;DHT22;12012;51.998;7.614;2023-04-24T01:07:58;11.40;1.00
23671;DHT22;12012;51.998;7.614;2023-04-24T01:10:25;11.40;99.90
23671;DHT22;12012;51.998;7.614;2023-04-24T01:12:53;11.30;99.90
23671;DHT22;12012;51.998;7.614;2023-04-24T01:15:18;11.40;99.90
23671;DHT22;12012;51.998;7.614;2023-04-24T01:17:44;11.30;99.90
23671;DHT22;12012;51.998;7.614;2023-04-24T01:20:10;11.30;99.90
23671;DHT22;12012;51.998;7.614;2023-04-24T01:22:36;11.30;99.90
23671;DHT22;12012;51.998;7.614;2023-04-24T01:25:02;11.30;99.90
23671;DHT22;12012;51.998;7.614;2023-04-24T01:27:28;11.30;99.90
23671;DHT22;12012;51.998;7.614;2023-04-24T01:29:54;11.20;99.90
23671;DHT22;12012;51.998;7.614;2023-04-24T01:32:20;11.20;99.90
23671;DHT22;12012;51.998;7.614;2023-04-24T01:34:46;11.20;99.90
23671;DHT22;12012;51.998;7.614;2023-04-24T01:37:13;11.20;99.90
23671;DHT22;12012;51.998;7.614;2023-04-24T01:39:38;11.20;99.90
23671;DHT22;12012;51.998;7.614;2023-04-24T01:42:05;11.20;99.90
23671;DHT22;12012;51.998;7.614;2023-04-24T01:44:31;11.20;99.90
23671;DHT22;12012;51.998;7.614;2023-04-24T01:46:58;11.20;99.90
23671;DHT22;12012;51.998;7.614;2023-04-24T01:49:23;11.20;99.90
23671;DHT22;12012;51.998;7.614;2023-04-24T01:51:49;11.20;99.90
23671;DHT22;12012;51.998;7.614;2023-04-24T01:54:14;11.20;99.90
23671;DHT22;12012;51.998;7.614;2023-04-24T01:56:44;11.20;99.90
23671;DHT22;12012;51.998;7.614;2023-04-24T01:59:11;11.20;99.90
23671;DHT22;12012;51.998;7.614;2023-04-24T02:01:37;11.20;99.90
23671;DHT22;12012;51.998;7.614;2023-04-24T02:04:04;11.20;99.90
23671;DHT22;12012;51.998;7.614;2023-04-24T02:06:30;11.20;99.90
23671;DHT22;12012;51.998;7.614;2023-04-24T02:08:58;11.20;99.90
23671;DHT22;12012;51.998;7.614;2023-04-24T02:11:24;11.20;99.90
23671;DHT22;12012;51.998;7.614;2023-04-24T02:13:50;11.20;99.90
23671;DHT22;12012;51.998;7.614;2023-04-24T02:16:17;11.20;99.90
23671;DHT22;12012;51.998;7.614;2023-04-24T02:18:42;11.20;99.90
23671;DHT22;12012;51.998;7.614;2023-04-24T02:21:08;11.20;99.90
23671;DHT22;12012;51.998;7.614;2023-04-24T02:23:33;11.20;99.90
23671;DHT22;12012;51.998;7.614;2023-04-24T02:25:59;11.20;99.90
23671;DHT22;12012;51.998;7.614;2023-04-24T02:28:25;11.20;99.90
23671;DHT22;12012;51.998;7.614;2023-04-24T02:30:50;11.20;99.90
23671;DHT22;12012;51.998;7.614;2023-04-24T02:33:16;11.20;99.90
23671;DHT22;12012;51.998;7.614;2023-04-24T02:35:42;11.20;99.90
23671;DHT22;12012;51.998;7.614;2023-04-24T02:38:07;11.10;99.90
23671;DHT22;12012;51.998;7.614;2023-04-24T02:40:33;11.10;99.90
23671;DHT22;12012;51.998;7.614;2023-04-24T02:42:58;11.10;99.90
23671;DHT22;12012;51.998;7.614;2023-04-24T02:45:24;11.10;99.90
23671;DHT22;12012;51.998;7.614;2023-04-24T02:47:50;11.00;99.90
23671;DHT22;12012;51.998;7.614;2023-04-24T02:50:15;11.00;99.90
23671;DHT22;12012;51.998;7.614;2023-04-24T02:52:41;11.00;1.00
23671;DHT22;12012;51.998;7.614;2023-04-24T02:55:07;11.00;1.00
23671;DHT22;12012;51.998;7.614;2023-04-24T02:57:33;11.00;1.00
23671;DHT22;12012;51.998;7.614;2023-04-24T02:59:59;11.00;1.00
23671;DHT22;12012;51.998;7.614;2023-04-24T03:02:25;11.00;1.00
23671;DHT22;12012;51.998;7.614;2023-04-24T03:04:50;10.90;1.00
23671;DHT22;12012;51.998;7.614;2023-04-24T03:07:16;10.90;1.00
23671;DHT22;12012;51.998;7.614;2023-04-24T03:09:42;10.90;1.00
23671;DHT22;12012;51.998;7.614;2023-04-24T03:12:07;10.80;25.20
23671;DHT22;12012;51.998;7.614;2023-04-24T03:14:33;10.80;99.90
23671;DHT22;12012;51.998;7.614;2023-04-24T03:16:58;10.80;99.90
23671;DHT22;12012;51.998;7.614;2023-04-24T03:19:24;10.70;99.90
23671;DHT22;12012;51.998;7.614;2023-04-24T03:21:50;10.70;99.90
23671;DHT22;12012;51.998;7.614;2023-04-24T03:24:15;10.60;99.90
23671;DHT22;12012;51.998;7.614;2023-04-24T03:26:41;10.60;99.90
23671;DHT22;12012;51.998;7.614;2023-04-24T03:29:07;10.60;99.90
23671;DHT22;12012;51.998;7.614;2023-04-24T03:31:32;10.50;99.90
23671;DHT22;12012;51.998;7.614;2023-04-24T03:33:58;10.50;99.90
23671;DHT22;12012;51.998;7.614;2023-04-24T03:36:23;10.50;99.90
23671;DHT22;12012;51.998;7.614;2023-04-24T03:38:49;10.40;99.90
23671;DHT22;12012;51.998;7.614;2023-04-24T03:41:14;10.40;1.00
23671;DHT22;12012;51.998;7.614;2023-04-24T03:43:40;10.40;1.00
23671;DHT22;12012;51.998;7.614;2023-04-24T03:46:06;10.30;99.90
23671;DHT22;12012;51.998;7.614;2023-04-24T03:48:32;10.30;1.00
23671;DHT22;12012;51.998;7.614;2023-04-24T03:50:57;10.20;99.90
23671;DHT22;12012;51.998;7.614;2023-04-24T03:53:23;10.20;1.00
23671;DHT22;12012;51.998;7.614;2023-04-24T03:55:48;10.10;1.00
23671;DHT22;12012;51.998;7.614;2023-04-24T03:58:14;10.10;99.90
23671;DHT22;12012;51.998;7.614;2023-04-24T04:00:40;10.10;99.90
23671;DHT22;12012;51.998;7.614;2023-04-24T04:03:06;10.00;99.90
23671;DHT22;12012;51.998;7.614;2023-04-24T04:05:31;10.00;1.00
23671;DHT22;12012;51.998;7.614;2023-04-24T04:07:57;10.00;96.60
23671;DHT22;12012;51.998;7.614;2023-04-24T04:10:23;9.90;99.90
23671;DHT22;12012;51.998;7.614;2023-04-24T04:12:48;9.90;99.90
23671;DHT22;12012;51.998;7.614;2023-04-24T04:15:14;9.90;1.00
23671;DHT22;12012;51.998;7.614;2023-04-24T04:17:39;9.90;1.00
23671;DHT22;12012;51.998;7.614;2023-04-24T04:20:06;9.90;29.70
23671;DHT22;12012;51.998;7.614;2023-04-24T04:22:36;9.90;1.00
23671;DHT22;12012;51.998;7.614;2023-04-24T04:25:02;9.90;99.90
23671;DHT22;12012;51.998;7.614;2023-04-24T04:27:28;9.90;99.90
23671;DHT22;12012;51.998;7.614;2023-04-24T04:29:54;9.90;99.90
23671;DHT22;12012;51.998;7.614;2023-04-24T04:32:21;9.90;1.00
23671;DHT22;12012;51.998;7.614;2023-04-24T04:34:47;9.90;36.50
23671;DHT22;12012;51.998;7.614;2023-04-24T04:37:14;9.90;40.70
23671;DHT22;12012;51.998;7.614;2023-04-24T04:39:40;10.00;1.00
23671;DHT22;12012;51.998;7.614;2023-04-24T04:42:06;9.90;1.00
23671;DHT22;12012;51.998;7.614;2023-04-24T04:44:32;10.00;99.90
23671;DHT22;12012;51.998;7.614;2023-04-24T04:46:58;10.00;99.90
23671;DHT22;12012;51.998;7.614;2023-04-24T04:49:25;10.00;99.90
23671;DHT22;12012;51.998;7.614;2023-04-24T04:51:53;10.00;99.90
23671;DHT22;12012;51.998;7.614;2023-04-24T04:54:19;10.00;1.00
23671;DHT22;12012;51.998;7.614;2023-04-24T04:56:44;9.90;99.90
23671;DHT22;12012;51.998;7.614;2023-04-24T04:59:10;9.90;99.90
23671;DHT22;12012;51.998;7.614;2023-04-24T05:01:36;9.80;99.90
23671;DHT22;12012;51.998;7.614;2023-04-24T05:04:02;9.80;1.00
23671;DHT22;12012;51.998;7.614;2023-04-24T05:06:27;9.80;99.90
23671;DHT22;12012;51.998;7.614;2023-04-24T05:08:53;9.70;99.90
23671;DHT22;12012;51.998;7.614;2023-04-24T05:11:22;9.70;17.70
23671;DHT22;12012;51.998;7.614;2023-04-24T05:13:48;9.70;99.90
23671;DHT22;12012;51.998;7.614;2023-04-24T05:16:13;9.70;31.30
23671;DHT22;12012;51.998;7.614;2023-04-24T05:18:39;9.70;99.90
23671;DHT22;12012;51.998;7.614;2023-04-24T05:21:05;9.70;1.00
23671;DHT22;12012;51.998;7.614;2023-04-24T05:23:31;9.70;1.00
23671;DHT22;12012;51.998;7.614;2023-04-24T05:25:56;9.70;1.00
23671;DHT22;12012;51.998;7.614;2023-04-24T05:28:22;9.70;1.00
23671;DHT22;12012;51.998;7.614;2023-04-24T05:30:48;9.80;99.90
23671;DHT22;12012;51.998;7.614;2023-04-24T05:33:13;9.80;99.90
23671;DHT22;12012;51.998;7.614;2023-04-24T05:35:40;9.80;1.00
23671;DHT22;12012;51.998;7.614;2023-04-24T05:38:11;9.90;99.90
23671;DHT22;12012;51.998;7.614;2023-04-24T05:40:36;9.90;3.80
23671;DHT22;12012;51.998;7.614;2023-04-24T05:43:02;9.90;1.00
23671;DHT22;12012;51.998;7.614;2023-04-24T05:45:28;10.00;99.90
23671;DHT22;12012;51.998;7.614;2023-04-24T05:47:53;10.00;99.90
23671;DHT22;12012;51.998;7.614;2023-04-24T05:50:19;10.00;1.00
23671;DHT22;12012;51.998;7.614;2023-04-24T05:52:45;10.00;1.00
23671;DHT22;12012;51.998;7.614;2023-04-24T05:55:10;10.00;99.90
23671;DHT22;12012;51.998;7.614;2023-04-24T05:57:36;10.10;99.90
23671;DHT22;12012;51.998;7.614;2023-04-24T06:00:02;10.10;46.90
23671;DHT22;12012;51.998;7.614;2023-04-24T06:02:29;10.10;75.40
23671;DHT22;12012;51.998;7.614;2023-04-24T06:05:00;10.10;1.00
23671;DHT22;12012;51.998;7.614;2023-04-24T06:07:26;10.10;99.90
23671;DHT22;12012;51.998;7.614;2023-04-24T06:09:52;10.10;99.90
23671;DHT22;12012;51.998;7.614;2023-04-24T06:12:18;10.10;99.90
23671;DHT22;12012;51.998;7.614;2023-04-24T06:14:43;10.10;1.00
23671;DHT22;12012;51.998;7.614;2023-04-24T06:17:09;10.10;1.00
23671;DHT22;12012;51.998;7.614;2023-04-24T06:19:35;10.10;1.00
23671;DHT22;12012;51.998;7.614;2023-04-24T06:22:00;10.10;1.00
23671;DHT22;12012;51.998;7.614;2023-04-24T06:24:29;10.10;99.90
23671;DHT22;12012;51.998;7.614;2023-04-24T06:26:55;10.10;99.90
23671;DHT22;12012;51.998;7.614;2023-04-24T06:29:22;10.20;99.90
23671;DHT22;12012;51.998;7.614;2023-04-24T06:31:47;10.20;99.90
23671;DHT22;12012;51.998;7.614;2023-04-24T06:34:13;10.20;99.90
23671;DHT22;12012;51.998;7.614;2023-04-24T06:36:39;10.10;1.00
23671;DHT22;12012;51.998;7.614;2023-04-24T06:39:04;10.20;1.00
23671;DHT22;12012;51.998;7.614;2023-04-24T06:41:30;10.10;99.90
23671;DHT22;12012;51.998;7.614;2023-04-24T06:43:55;10.10;99.90
23671;DHT22;12012;51.998;7.614;2023-04-24T06:46:21;10.10;99.90
23671;DHT22;12012;51.998;7.614;2023-04-24T06:48:52;10.10;1.00
23671;DHT22;12012;51.998;7.614;2023-04-24T06:51:24;10.00;1.00
23671;DHT22;12012;51.998;7.614;2023-04-24T06:53:50;10.00;1.00
23671;DHT22;12012;51.998;7.614;2023-04-24T06:56:16;10.10;1.00
23671;DHT22;12012;51.998;7.614;2023-04-24T06:58:42;10.10;1.00
23671;DHT22;12012;51.998;7.614;2023-04-24T07:01:07;10.10;1.00
23671;DHT22;12012;51.998;7.614;2023-04-24T07:03:33;10.20;99.90
23671;DHT22;12012;51.998;7.614;2023-04-24T07:05:58;10.10;99.90
23671;DHT22;12012;51.998;7.614;2023-04-24T07:08:24;10.20;99.90
23671;DHT22;12012;51.998;7.614;2023-04-24T07:10:50;10.20;99.90
23671;DHT22;12012;51.998;7.614;2023-04-24T07:13:16;10.20;10.80
23671;DHT22;12012;51.998;7.614;2023-04-24T07:15:42;10.30;1.00
23671;DHT22;12012;51.998;7.614;2023-04-24T07:18:08;10.40;1.00
23671;DHT22;12012;51.998;7.614;2023-04-24T07:20:34;10.40;1.00
23671;DHT22;12012;51.998;7.614;2023-04-24T07:23:00;10.40;73.20
23671;DHT22;12012;51.998;7.614;2023-04-24T07:25:25;10.30;34.50
23671;DHT22;12012;51.998;7.614;2023-04-24T07:27:51;10.30;99.90
23671;DHT22;12012;51.998;7.614;2023-04-24T07:30:17;10.20;1.00
23671;DHT22;12012;51.998;7.614;2023-04-24T07:32:43;10.20;1.00
23671;DHT22;12012;51.998;7.614;2023-04-24T07:35:08;10.20;1.00
23671;DHT22;12012;51.998;7.614;2023-04-24T07:37:35;10.20;99.90
23671;DHT22;12012;51.998;7.614;2023-04-24T07:40:01;10.20;99.90
23671;DHT22;12012;51.998;7.614;2023-04-24T07:42:27;10.10;99.90
23671;DHT22;12012;51.998;7.614;2023-04-24T07:44:53;10.10;1.00
23671;DHT22;12012;51.998;7.614;2023-04-24T07:47:18;10.10;1.00
23671;DHT22;12012;51.998;7.614;2023-04-24T07:49:44;10.00;99.90
23671;DHT22;12012;51.998;7.614;2023-04-24T07:52:10;9.90;99.90
23671;DHT22;12012;51.998;7.614;2023-04-24T07:54:35;9.90;99.90
23671;DHT22;12012;51.998;7.614;2023-04-24T07:57:03;9.90;99.90
23671;DHT22;12012;51.998;7.614;2023-04-24T07:59:28;9.90;1.00
23671;DHT22;12012;51.998;7.614;2023-04-24T08:01:54;10.00;1.00
23671;DHT22;12012;51.998;7.614;2023-04-24T08:04:19;10.00;1.00
23671;DHT22;12012;51.998;7.614;2023-04-24T08:06:47;9.90;1.00
23671;DHT22;12012;51.998;7.614;2023-04-24T08:09:12;9.90;69.00
23671;DHT22;12012;51.998;7.614;2023-04-24T08:11:38;9.80;99.90
23671;DHT22;12012;51.998;7.614;2023-04-24T08:14:04;9.90;1.00
23671;DHT22;12012;51.998;7.614;2023-04-24T08:16:29;9.80;99.90
23671;DHT22;12012;51.998;7.614;2023-04-24T08:18:55;9.90;99.90
23671;DHT22;12012;51.998;7.614;2023-04-24T08:21:20;9.90;99.90
23671;DHT22;12012;51.998;7.614;2023-04-24T08:23:46;9.90;2.30
23671;DHT22;12012;51.998;7.614;2023-04-24T08:26:13;9.90;8.40
23671;DHT22;12012;51.998;7.614;2023-04-24T08:28:38;9.90;1.00
23671;DHT22;12012;51.998;7.614;2023-04-24T08:31:04;10.00;3.40
23671;DHT22;12012;51.998;7.614;2023-04-24T08:33:30;9.90;1.00
23671;DHT22;12012;51.998;7.614;2023-04-24T08:36:04;9.90;99.90
23671;DHT22;12012;51.998;7.614;2023-04-24T08:38:30;9.90;11.10
23671;DHT22;12012;51.998;7.614;2023-04-24T08:40:57;9.90;99.90
23671;DHT22;12012;51.998;7.614;2023-04-24T08:43:23;9.90;99.90
23671;DHT22;12012;51.998;7.614;2023-04-24T08:45:50;9.90;1.60
23671;DHT22;12012;51.998;7.614;2023-04-24T08:48:17;10.10;1.00
23671;DHT22;12012;51.998;7.614;2023-04-24T08:50:43;10.10;53.90
23671;DHT22;12012;51.998;7.614;2023-04-24T08:53:10;10.10;1.00
23671;DHT22;12012;51.998;7.614;2023-04-24T08:55:37;10.10;1.00
23671;DHT22;12012;51.998;7.614;2023-04-24T08:58:03;10.10;1.00
23671;DHT22;12012;51.998;7.614;2023-04-24T09:00:29;10.00;99.90
23671;DHT22;12012;51.998;7.614;2023-04-24T09:02:55;10.00;1.00
23671;DHT22;12012;51.998;7.614;2023-04-24T09:05:22;10.00;1.00
23671;DHT22;12012;51.998;7.614;2023-04-24T09:07:56;10.00;99.90
23671;DHT22;12012;51.998;7.614;2023-04-24T09:10:23;10.10;99.90
23671;DHT22;12012;51.998;7.614;2023-04-24T09:12:50;10.10;99.90
23671;DHT22;12012;51.998;7.614;2023-04-24T09:15:18;10.10;90.60
23671;DHT22;12012;51.998;7.614;2023-04-24T09:17:44;10.10;99.90
23671;DHT22;12012;51.998;7.614;2023-04-24T09:20:10;10.00;99.90
23671;DHT22;12012;51.998;7.614;2023-04-24T09:22:36;9.90;99.90
23671;DHT22;12012;51.998;7.614;2023-04-24T09:25:06;9.80;83.80
23671;DHT22;12012;51.998;7.614;2023-04-24T09:27:35;9.70;99.90
23671;DHT22;12012;51.998;7.614;2023-04-24T09:30:01;9.70;1.00
23671;DHT22;12012;51.998;7.614;2023-04-24T09:32:27;9.70;99.90
23671;DHT22;12012;51.998;7.614;2023-04-24T09:35:11;9.60;99.90
23671;DHT22;12012;51.998;7.614;2023-04-24T09:37:38;9.60;99.90
23671;DHT22;12012;51.998;7.614;2023-04-24T09:40:22;9.60;99.90
23671;DHT22;12012;51.998;7.614;2023-04-24T09:42:56;9.50;1.00
23671;DHT22;12012;51.998;7.614;2023-04-24T09:45:31;9.40;1.00
23671;DHT22;12012;51.998;7.614;2023-04-24T09:48:00;9.30;1.00
23671;DHT22;12012;51.998;7.614;2023-04-24T09:50:26;9.30;1.00
23671;DHT22;12012;51.998;7.614;2023-04-24T09:53:02;9.30;1.00
23671;DHT22;12012;51.998;7.614;2023-04-24T09:55:29;9.20;1.00
23671;DHT22;12012;51.998;7.614;2023-04-24T09:57:59;9.20;1.00
23671;DHT22;12012;51.998;7.614;2023-04-24T10:00:32;9.10;1.00
23671;DHT22;12012;51.998;7.614;2023-04-24T10:03:00;9.00;20.20
23671;DHT22;12012;51.998;7.614;2023-04-24T10:05:35;9.00;18.60
23671;DHT22;12012;51.998;7.614;2023-04-24T10:08:02;9.00;17.00
23671;DHT22;12012;51.998;7.614;2023-04-24T10:10:29;9.00;33.60
23671;DHT22;12012;51.998;7.614;2023-04-24T10:12:55;9.00;48.10
23671;DHT22;12012;51.998;7.614;2023-04-24T10:15:21;9.00;47.10
23671;DHT22;12012;51.998;7.614;2023-04-24T10:17:49;9.00;45.20
23671;DHT22;12012;51.998;7.614;2023-04-24T10:20:25;9.00;57.00
23671;DHT22;12012;51.998;7.614;2023-04-24T10:22:53;9.00;55.50
23671;DHT22;12012;51.998;7.614;2023-04-24T10:25:20;9.10;53.90
23671;DHT22;12012;51.998;7.614;2023-04-24T10:27:48;9.10;59.60
23671;DHT22;12012;51.998;7.614;2023-04-24T10:30:14;9.10;64.10
23671;DHT22;12012;51.998;7.614;2023-04-24T10:32:40;9.10;59.50
23671;DHT22;12012;51.998;7.614;2023-04-24T10:35:09;9.10;59.20
23671;DHT22;12012;51.998;7.614;2023-04-24T10:37:38;9.10;58.80
23671;DHT22;12012;51.998;7.614;2023-04-24T10:40:06;9.10;61.90
23671;DHT22;12012;51.998;7.614;2023-04-24T10:42:33;9.10;73.40
23671;DHT22;12012;51.998;7.614;2023-04-24T10:44:59;9.00;71.20
23671;DHT22;12012;51.998;7.614;2023-04-24T10:47:27;9.00;78.30
23671;DHT22;12012;51.998;7.614;2023-04-24T10:49:53;9.00;78.40
23671;DHT22;12012;51.998;7.614;2023-04-24T10:52:19;9.00;75.40
23671;DHT22;12012;51.998;7.614;2023-04-24T10:54:45;9.00;78.10
23671;DHT22;12012;51.998;7.614;2023-04-24T10:59:49;9.00;78.90
23671;DHT22;12012;51.998;7.614;2023-04-24T11:02:15;8.90;68.90
23671;DHT22;12012;51.998;7.614;2023-04-24T11:04:41;8.90;59.80
23671;DHT22;12012;51.998;7.614;2023-04-24T11:07:09;8.90;57.60
23671;DHT22;12012;51.998;7.614;2023-04-24T11:09:35;8.80;57.40
23671;DHT22;12012;51.998;7.614;2023-04-24T11:12:06;8.70;61.10
23671;DHT22;12012;51.998;7.614;2023-04-24T11:17:35;8.70;75.90
23671;DHT22;12012;51.998;7.614;2023-04-24T11:20:07;8.70;84.30
23671;DHT22;12012;51.998;7.614;2023-04-24T11:22:35;8.70;88.70
23671;DHT22;12012;51.998;7.614;2023-04-24T11:25:03;8.70;88.80
23671;DHT22;12012;51.998;7.614;2023-04-24T11:27:39;8.80;91.00
23671;DHT22;12012;51.998;7.614;2023-04-24T11:30:05;8.80;90.40
23671;DHT22;12012;51.998;7.614;2023-04-24T11:35:08;8.90;84.00
23671;DHT22;12012;51.998;7.614;2023-04-24T11:37:39;8.90;78.40
23671;DHT22;12012;51.998;7.614;2023-04-24T11:40:10;9.00;81.30
23671;DHT22;12012;51.998;7.614;2023-04-24T11:42:39;9.00;86.50
23671;DHT22;12012;51.998;7.614;2023-04-24T11:45:12;9.10;87.90
23671;DHT22;12012;51.998;7.614;2023-04-24T11:47:38;9.20;85.20
23671;DHT22;12012;51.998;7.614;2023-04-24T11:50:07;9.20;82.10
23671;DHT22;12012;51.998;7.614;2023-04-24T11:52:37;9.20;77.60
23671;DHT22;12012;51.998;7.614;2023-04-24T11:55:03;9.20;75.00
23671;DHT22;12012;51.998;7.614;2023-04-24T11:57:30;9.10;79.50
23671;DHT22;12012;51.998;7.614;2023-04-24T12:00:00;9.10;80.20
23671;DHT22;12012;51.998;7.614;2023-04-24T12:02:26;9.00;81.90
23671;DHT22;12012;51.998;7.614;2023-04-24T12:04:55;8.90;87.00
23671;DHT22;12012;51.998;7.614;2023-04-24T12:07:23;8.90;87.20
23671;DHT22;12012;51.998;7.614;2023-04-24T12:09:57;8.90;87.20
23671;DHT22;12012;51.998;7.614;2023-04-24T12:12:27;8.90;82.80
23671;DHT22;12012;51.998;7.614;2023-04-24T12:14:55;8.90;82.60
23671;DHT22;12012;51.998;7.614;2023-04-24T12:17:27;8.90;77.20
23671;DHT22;12012;51.998;7.614;2023-04-24T12:20:00;8.80;56.30
23671;DHT22;12012;51.998;7.614;2023-04-24T12:22:26;8.80;55.80
23671;DHT22;12012;51.998;7.614;2023-04-24T12:25:03;8.70;63.00
23671;DHT22;12012;51.998;7.614;2023-04-24T12:27:32;8.60;66.10
23671;DHT22;12012;51.998;7.614;2023-04-24T12:30:03;8.60;78.90
23671;DHT22;12012;51.998;7.614;2023-04-24T12:32:29;8.60;89.90
23671;DHT22;12012;51.998;7.614;2023-04-24T12:34:56;8.60;91.40
23671;DHT22;12012;51.998;7.614;2023-04-24T12:37:25;8.70;89.90
23671;DHT22;12012;51.998;7.614;2023-04-24T12:40:06;8.80;87.60
23671;DHT22;12012;51.998;7.614;2023-04-24T12:42:34;8.90;81.40
23671;DHT22;12012;51.998;7.614;2023-04-24T12:45:05;9.00;61.50
23671;DHT22;12012;51.998;7.614;2023-04-24T12:47:32;9.30;37.80
23671;DHT22;12012;51.998;7.614;2023-04-24T12:49:58;9.40;35.90
23671;DHT22;12012;51.998;7.614;2023-04-24T12:52:29;9.50;30.20
23671;DHT22;12012;51.998;7.614;2023-04-24T12:54:59;9.50;21.30
23671;DHT22;12012;51.998;7.614;2023-04-24T12:57:26;9.50;25.40
23671;DHT22;12012;51.998;7.614;2023-04-24T12:59:56;9.50;16.30
23671;DHT22;12012;51.998;7.614;2023-04-24T13:02:26;9.50;1.00
23671;DHT22;12012;51.998;7.614;2023-04-24T13:04:53;9.50;1.00
23671;DHT22;12012;51.998;7.614;2023-04-24T13:07:19;9.50;1.00
23671;DHT22;12012;51.998;7.614;2023-04-24T13:09:45;9.60;1.00
23671;DHT22;12012;51.998;7.614;2023-04-24T13:12:11;9.70;1.00
23671;DHT22;12012;51.998;7.614;2023-04-24T13:14:37;9.80;1.00
23671;DHT22;12012;51.998;7.614;2023-04-24T13:17:04;9.90;1.00
23671;DHT22;12012;51.998;7.614;2023-04-24T13:19:29;10.00;99.90
23671;DHT22;12012;51.998;7.614;2023-04-24T13:22:00;10.10;99.90
23671;DHT22;12012;51.998;7.614;2023-04-24T13:24:26;10.10;56.90
23671;DHT22;12012;51.998;7.614;2023-04-24T13:26:52;10.20;24.30
23671;DHT22;12012;51.998;7.614;2023-04-24T13:29:18;10.20;1.00
23671;DHT22;12012;51.998;7.614;2023-04-24T13:31:44;10.20;99.90
23671;DHT22;12012;51.998;7.614;2023-04-24T13:34:10;10.20;99.90
23671;DHT22;12012;51.998;7.614;2023-04-24T13:36:36;10.40;11.70
23671;DHT22;12012;51.998;7.614;2023-04-24T13:39:02;10.50;99.90
23671;DHT22;12012;51.998;7.614;2023-04-24T13:41:30;10.50;99.90
23671;DHT22;12012;51.998;7.614;2023-04-24T13:43:55;10.40;99.90
23671;DHT22;12012;51.998;7.614;2023-04-24T13:46:22;10.30;99.90
23671;DHT22;12012;51.998;7.614;2023-04-24T13:48:48;10.20;99.90
23671;DHT22;12012;51.998;7.614;2023-04-24T13:51:13;10.00;1.00
23671;DHT22;12012;51.998;7.614;2023-04-24T13:53:39;9.90;1.00
23671;DHT22;12012;51.998;7.614;2023-04-24T13:56:05;9.90;99.90
23671;DHT22;12012;51.998;7.614;2023-04-24T13:58:31;9.80;99.90
23671;DHT22;12012;51.998;7.614;2023-04-24T14:00:57;9.70;99.90
23671;DHT22;12012;51.998;7.614;2023-04-24T14:03:23;9.60;1.00
23671;DHT22;12012;51.998;7.614;2023-04-24T14:05:48;9.50;99.90
23671;DHT22;12012;51.998;7.614;2023-04-24T14:08:14;9.70;1.00
23671;DHT22;12012;51.998;7.614;2023-04-24T14:10:39;9.80;1.00
23671;DHT22;12012;51.998;7.614;2023-04-24T14:13:05;9.90;87.00
23671;DHT22;12012;51.998;7.614;2023-04-24T14:15:31;9.90;99.90
23671;DHT22;12012;51.998;7.614;2023-04-24T14:17:57;9.90;50.40
23671;DHT22;12012;51.998;7.614;2023-04-24T14:20:23;10.00;99.90
23671;DHT22;12012;51.998;7.614;2023-04-24T14:22:48;10.10;85.30
23671;DHT22;12012;51.998;7.614;2023-04-24T14:25:14;10.30;1.00
23671;DHT22;12012;51.998;7.614;2023-04-24T14:27:40;10.50;1.00
23671;DHT22;12012;51.998;7.614;2023-04-24T14:30:07;10.60;89.70
23671;DHT22;12012;51.998;7.614;2023-04-24T14:32:32;10.70;1.00
23671;DHT22;12012;51.998;7.614;2023-04-24T14:34:58;10.80;1.00
23671;DHT22;12012;51.998;7.614;2023-04-24T14:37:24;11.00;99.90
23671;DHT22;12012;51.998;7.614;2023-04-24T14:39:49;10.90;99.90
23671;DHT22;12012;51.998;7.614;2023-04-24T14:42:15;10.80;99.90
23671;DHT22;12012;51.998;7.614;2023-04-24T14:44:42;10.70;99.90
23671;DHT22;12012;51.998;7.614;2023-04-24T14:47:07;10.60;99.90
23671;DHT22;12012;51.998;7.614;2023-04-24T14:49:33;10.50;99.90
23671;DHT22;12012;51.998;7.614;2023-04-24T14:51:59;10.50;99.90
23671;DHT22;12012;51.998;7.614;2023-04-24T14:54:24;10.50;99.90
23671;DHT22;12012;51.998;7.614;2023-04-24T14:56:50;10.50;99.90
23671;DHT22;12012;51.998;7.614;2023-04-24T14:59:16;10.50;99.90
23671;DHT22;12012;51.998;7.614;2023-04-24T15:01:42;10.40;99.90
23671;DHT22;12012;51.998;7.614;2023-04-24T15:04:07;10.30;1.00
23671;DHT22;12012;51.998;7.614;2023-04-24T15:06:33;10.20;93.90
23671;DHT22;12012;51.998;7.614;2023-04-24T15:08:59;10.10;99.90
23671;DHT22;12012;51.998;7.614;2023-04-24T15:11:24;10.10;99.90
23671;DHT22;12012;51.998;7.614;2023-04-24T15:13:50;10.00;1.00
23671;DHT22;12012;51.998;7.614;2023-04-24T15:16:16;10.00;99.90
23671;DHT22;12012;51.998;7.614;2023-04-24T15:18:42;10.00;99.90
23671;DHT22;12012;51.998;7.614;2023-04-24T15:21:07;10.10;99.90
23671;DHT22;12012;51.998;7.614;2023-04-24T15:23:33;10.10;1.00
23671;DHT22;12012;51.998;7.614;2023-04-24T15:25:59;10.20;1.00
23671;DHT22;12012;51.998;7.614;2023-04-24T15:28:25;10.20;99.90
23671;DHT22;12012;51.998;7.614;2023-04-24T15:30:50;10.20;1.00
23671;DHT22;12012;51.998;7.614;2023-04-24T15:33:16;10.20;99.90
23671;DHT22;12012;51.998;7.614;2023-04-24T15:35:42;10.30;99.90
23671;DHT22;12012;51.998;7.614;2023-04-24T15:38:07;10.30;99.90
23671;DHT22;12012;51.998;7.614;2023-04-24T15:40:33;10.30;99.90
23671;DHT22;12012;51.998;7.614;2023-04-24T15:42:59;10.30;99.90
23671;DHT22;12012;51.998;7.614;2023-04-24T15:45:25;10.20;99.90
23671;DHT22;12012;51.998;7.614;2023-04-24T15:47:51;10.20;55.90